sensor_id;sensor_type;location;lat;lon;timestamp;temperature;humidity
1700;DHT22;847;48.058;7.810;2023-04-15T00:02:13;7.10;89.00
1700;DHT22;847;48.058;7.810;2023-04-15T00:04:40;7.00;89.20
1700;DHT22;847;48.058;7.810;2023-04-15T00:07:07;7.00;89.60
1700;DHT22;847;48.058;7.810;2023-04-15T00:09:34;6.90;89.70
1700;DHT22;847;48.058;7.810;2023-04-15T00:12:01;7.00;90.10
1700;DHT22;847;48.058;7.810;2023-04-15T00:14:28;6.90;89.80
1700;DHT22;847;48.058;7.810;2023-04-15T00:16:56;6.90;89.50
1700;DHT22;847;48.058;7.810;2023-04-15T00:19:23;6.90;89.90
1700;DHT22;847;48.058;7.810;2023-04-15T00:21:49;6.90;89.80
1700;DHT22;847;48.058;7.810;2023-04-15T00:24:16;6.90;90.20
1700;DHT22;847;48.058;7.810;2023-04-15T00:26:43;7.00;90.20
1700;DHT22;847;48.058;7.810;2023-04-15T00:29:10;7.00;89.70
1700;DHT22;847;48.058;7.810;2023-04-15T00:31:36;7.00;90.80
1700;DHT22;847;48.058;7.810;2023-04-15T00:34:05;7.00;90.10
1700;DHT22;847;48.058;7.810;2023-04-15T00:36:31;7.00;90.40
1700;DHT22;847;48.058;7.810;2023-04-15T00:38:59;6.90;90.20
1700;DHT22;847;48.058;7.810;2023-04-15T00:41:27;7.00;90.10
1700;DHT22;847;48.058;7.810;2023-04-15T00:43:54;7.00;90.40
1700;DHT22;847;48.058;7.810;2023-04-15T00:46:21;7.10;90.10
1700;DHT22;847;48.058;7.810;2023-04-15T00:48:48;7.10;90.00
1700;DHT22;847;48.058;7.810;2023-04-15T00:51:17;7.10;89.60
1700;DHT22;847;48.058;7.810;2023-04-15T00:53:54;7.10;89.30
1700;DHT22;847;48.058;7.810;2023-04-15T00:56:21;7.20;89.00
1700;DHT22;847;48.058;7.810;2023-04-15T00:58:49;7.20;89.80
1700;DHT22;847;48.058;7.810;2023-04-15T01:01:18;7.20;90.50
1700;DHT22;847;48.058;7.810;2023-04-15T01:03:46;7.20;90.80
1700;DHT22;847;48.058;7.810;2023-04-15T01:06:13;7.20;91.20
1700;DHT22;847;48.058;7.810;2023-04-15T01:08:42;7.20;91.30
1700;DHT22;847;48.058;7.810;2023-04-15T01:11:10;7.30;90.90
1700;DHT22;847;48.058;7.810;2023-04-15T01:13:38;7.30;90.20
1700;DHT22;847;48.058;7.810;2023-04-15T01:16:05;7.30;90.30
1700;DHT22;847;48.058;7.810;2023-04-15T01:18:33;7.30;90.50
1700;DHT22;847;48.058;7.810;2023-04-15T01:21:01;7.30;89.90
1700;DHT22;847;48.058;7.810;2023-04-15T01:23:28;7.40;90.20
1700;DHT22;847;48.058;7.810;2023-04-15T01:25:57;7.40;90.10
1700;DHT22;847;48.058;7.810;2023-04-15T01:28:24;7.30;90.00
1700;DHT22;847;48.058;7.810;2023-04-15T01:31:04;7.30;89.60
1700;DHT22;847;48.058;7.810;2023-04-15T01:33:32;7.30;89.60
1700;DHT22;847;48.058;7.810;2023-04-15T01:35:59;7.20;89.60
1700;DHT22;847;48.058;7.810;2023-04-15T01:38:26;7.20;90.50
1700;DHT22;847;48.058;7.810;2023-04-15T01:40:53;7.10;90.90
1700;DHT22;847;48.058;7.810;2023-04-15T01:43:21;7.10;90.70
1700;DHT22;847;48.058;7.810;2023-04-15T01:45:48;7.10;90.90
1700;DHT22;847;48.058;7.810;2023-04-15T01:48:15;7.20;91.10
1700;DHT22;847;48.058;7.810;2023-04-15T01:50:42;7.10;91.60
1700;DHT22;847;48.058;7.810;2023-04-15T01:53:09;7.10;91.20
1700;DHT22;847;48.058;7.810;2023-04-15T01:55:35;7.10;92.10
1700;DHT22;847;48.058;7.810;2023-04-15T01:58:02;7.10;93.00
1700;DHT22;847;48.058;7.810;2023-04-15T02:00:30;7.00;93.30
1700;DHT22;847;48.058;7.810;2023-04-15T02:02:57;6.90;93.60
1700;DHT22;847;48.058;7.810;2023-04-15T02:05:24;6.80;94.10
1700;DHT22;847;48.058;7.810;2023-04-15T02:07:52;6.90;94.20
1700;DHT22;847;48.058;7.810;2023-04-15T02:10:19;6.90;94.10
1700;DHT22;847;48.058;7.810;2023-04-15T02:12:46;7.00;94.40
1700;DHT22;847;48.058;7.810;2023-04-15T02:15:12;7.10;93.80
1700;DHT22;847;48.058;7.810;2023-04-15T02:17:41;7.10;93.70
1700;DHT22;847;48.058;7.810;2023-04-15T02:20:10;7.10;94.00
1700;DHT22;847;48.058;7.810;2023-04-15T02:22:37;7.00;94.50
1700;DHT22;847;48.058;7.810;2023-04-15T02:25:05;7.10;94.50
1700;DHT22;847;48.058;7.810;2023-04-15T02:27:32;7.10;94.90
1700;DHT22;847;48.058;7.810;2023-04-15T02:29:58;7.10;94.50
1700;DHT22;847;48.058;7.810;2023-04-15T02:32:25;7.10;94.30
1700;DHT22;847;48.058;7.810;2023-04-15T02:34:54;7.10;94.10
1700;DHT22;847;48.058;7.810;2023-04-15T02:37:21;7.20;93.80
1700;DHT22;847;48.058;7.810;2023-04-15T02:39:49;7.20;93.50
1700;DHT22;847;48.058;7.810;2023-04-15T02:42:15;7.20;93.30
1700;DHT22;847;48.058;7.810;2023-04-15T02:44:42;7.30;93.30
1700;DHT22;847;48.058;7.810;2023-04-15T02:47:09;7.30;93.30
1700;DHT22;847;48.058;7.810;2023-04-15T02:49:36;7.30;92.80
1700;DHT22;847;48.058;7.810;2023-04-15T02:52:04;7.30;92.40
1700;DHT22;847;48.058;7.810;2023-04-15T02:54:31;7.20;94.30
1700;DHT22;847;48.058;7.810;2023-04-15T02:56:58;7.10;94.50
1700;DHT22;847;48.058;7.810;2023-04-15T02:59:26;7.20;93.80
1700;DHT22;847;48.058;7.810;2023-04-15T03:01:52;7.20;93.40
1700;DHT22;847;48.058;7.810;2023-04-15T03:04:20;7.10;94.20
1700;DHT22;847;48.058;7.810;2023-04-15T03:06:47;7.20;94.10
1700;DHT22;847;48.058;7.810;2023-04-15T03:09:15;7.10;93.40
1700;DHT22;847;48.058;7.810;2023-04-15T03:11:42;7.10;93.80
1700;DHT22;847;48.058;7.810;2023-04-15T03:14:09;7.10;94.90
1700;DHT22;847;48.058;7.810;2023-04-15T03:16:35;7.10;96.20
1700;DHT22;847;48.058;7.810;2023-04-15T03:19:02;7.00;96.50
1700;DHT22;847;48.058;7.810;2023-04-15T03:21:29;7.00;96.20
1700;DHT22;847;48.058;7.810;2023-04-15T03:23:56;7.00;96.40
1700;DHT22;847;48.058;7.810;2023-04-15T03:26:25;7.00;95.50
1700;DHT22;847;48.058;7.810;2023-04-15T03:28:52;7.00;95.20
1700;DHT22;847;48.058;7.810;2023-04-15T03:31:19;7.00;95.40
1700;DHT22;847;48.058;7.810;2023-04-15T03:33:46;7.10;95.60
1700;DHT22;847;48.058;7.810;2023-04-15T03:36:13;7.10;96.00
1700;DHT22;847;48.058;7.810;2023-04-15T03:38:40;7.10;95.70
1700;DHT22;847;48.058;7.810;2023-04-15T03:41:07;7.10;96.20
1700;DHT22;847;48.058;7.810;2023-04-15T03:43:35;7.10;96.90
1700;DHT22;847;48.058;7.810;2023-04-15T03:46:02;7.00;96.90
1700;DHT22;847;48.058;7.810;2023-04-15T03:48:28;7.10;96.80
1700;DHT22;847;48.058;7.810;2023-04-15T03:50:55;7.10;96.90
1700;DHT22;847;48.058;7.810;2023-04-15T03:53:22;7.00;96.70
1700;DHT22;847;48.058;7.810;2023-04-15T03:55:49;7.10;96.70
1700;DHT22;847;48.058;7.810;2023-04-15T03:58:16;7.10;96.80
1700;DHT22;847;48.058;7.810;2023-04-15T04:00:44;7.10;96.10
1700;DHT22;847;48.058;7.810;2023-04-15T04:03:11;7.10;96.40
1700;DHT22;847;48.058;7.810;2023-04-15T04:05:38;7.10;96.60
1700;DHT22;847;48.058;7.810;2023-04-15T04:08:06;7.10;97.00
1700;DHT22;847;48.058;7.810;2023-04-15T04:10:32;7.10;96.90
1700;DHT22;847;48.058;7.810;2023-04-15T04:12:59;7.10;96.20
1700;DHT22;847;48.058;7.810;2023-04-15T04:15:26;7.20;96.00
1700;DHT22;847;48.058;7.810;2023-04-15T04:17:54;7.10;97.30
1700;DHT22;847;48.058;7.810;2023-04-15T04:20:21;7.00;97.80
1700;DHT22;847;48.058;7.810;2023-04-15T04:22:48;7.10;96.80
1700;DHT22;847;48.058;7.810;2023-04-15T04:25:15;7.10;96.40
1700;DHT22;847;48.058;7.810;2023-04-15T04:27:42;7.10;96.20
1700;DHT22;847;48.058;7.810;2023-04-15T04:30:10;7.00;96.60
1700;DHT22;847;48.058;7.810;2023-04-15T04:32:37;6.90;96.20
1700;DHT22;847;48.058;7.810;2023-04-15T04:35:05;6.90;96.50
1700;DHT22;847;48.058;7.810;2023-04-15T04:37:32;6.90;96.60
1700;DHT22;847;48.058;7.810;2023-04-15T04:39:59;6.90;97.10
1700;DHT22;847;48.058;7.810;2023-04-15T04:42:26;7.00;96.60
1700;DHT22;847;48.058;7.810;2023-04-15T04:44:56;7.10;96.40
1700;DHT22;847;48.058;7.810;2023-04-15T04:47:22;7.10;95.90
1700;DHT22;847;48.058;7.810;2023-04-15T04:49:49;7.10;96.10
1700;DHT22;847;48.058;7.810;2023-04-15T04:52:17;7.10;95.60
1700;DHT22;847;48.058;7.810;2023-04-15T04:54:44;7.20;95.60
1700;DHT22;847;48.058;7.810;2023-04-15T04:57:11;7.20;95.10
1700;DHT22;847;48.058;7.810;2023-04-15T04:59:39;7.20;94.60
1700;DHT22;847;48.058;7.810;2023-04-15T05:02:06;7.20;94.60
1700;DHT22;847;48.058;7.810;2023-04-15T05:04:32;7.20;95.10
1700;DHT22;847;48.058;7.810;2023-04-15T05:06:59;7.20;94.90
1700;DHT22;847;48.058;7.810;2023-04-15T05:09:28;7.30;94.70
1700;DHT22;847;48.058;7.810;2023-04-15T05:11:56;7.30;95.00
1700;DHT22;847;48.058;7.810;2023-04-15T05:14:23;7.30;94.80
1700;DHT22;847;48.058;7.810;2023-04-15T05:16:50;7.30;94.00
1700;DHT22;847;48.058;7.810;2023-04-15T05:19:17;7.50;94.30
1700;DHT22;847;48.058;7.810;2023-04-15T05:21:44;7.50;93.40
1700;DHT22;847;48.058;7.810;2023-04-15T05:24:10;7.50;93.20
1700;DHT22;847;48.058;7.810;2023-04-15T05:26:38;7.50;92.50
1700;DHT22;847;48.058;7.810;2023-04-15T05:29:05;7.60;92.30
1700;DHT22;847;48.058;7.810;2023-04-15T05:31:32;7.60;91.60
1700;DHT22;847;48.058;7.810;2023-04-15T05:33:59;7.60;91.90
1700;DHT22;847;48.058;7.810;2023-04-15T05:36:26;7.70;92.00
1700;DHT22;847;48.058;7.810;2023-04-15T05:38:53;7.70;92.00
1700;DHT22;847;48.058;7.810;2023-04-15T05:41:19;7.70;92.00
1700;DHT22;847;48.058;7.810;2023-04-15T05:43:48;7.80;91.50
1700;DHT22;847;48.058;7.810;2023-04-15T05:46:14;7.70;93.70
1700;DHT22;847;48.058;7.810;2023-04-15T05:48:41;7.80;94.10
1700;DHT22;847;48.058;7.810;2023-04-15T05:51:08;7.80;93.50
1700;DHT22;847;48.058;7.810;2023-04-15T05:53:35;7.80;93.10
1700;DHT22;847;48.058;7.810;2023-04-15T05:56:02;7.80;92.70
1700;DHT22;847;48.058;7.810;2023-04-15T05:58:29;7.90;93.60
1700;DHT22;847;48.058;7.810;2023-04-15T06:00:57;8.00;93.90
1700;DHT22;847;48.058;7.810;2023-04-15T06:03:24;8.10;93.50
1700;DHT22;847;48.058;7.810;2023-04-15T06:05:51;8.20;93.20
1700;DHT22;847;48.058;7.810;2023-04-15T06:08:17;8.20;92.20
1700;DHT22;847;48.058;7.810;2023-04-15T06:10:44;8.30;92.10
1700;DHT22;847;48.058;7.810;2023-04-15T06:13:11;8.40;91.60
1700;DHT22;847;48.058;7.810;2023-04-15T06:15:38;8.40;91.80
1700;DHT22;847;48.058;7.810;2023-04-15T06:18:07;8.40;91.20
1700;DHT22;847;48.058;7.810;2023-04-15T06:20:33;8.50;91.10
1700;DHT22;847;48.058;7.810;2023-04-15T06:23:01;8.60;90.90
1700;DHT22;847;48.058;7.810;2023-04-15T06:25:27;8.60;91.00
1700;DHT22;847;48.058;7.810;2023-04-15T06:27:54;8.60;91.00
1700;DHT22;847;48.058;7.810;2023-04-15T06:30:21;8.70;91.10
1700;DHT22;847;48.058;7.810;2023-04-15T06:32:47;8.70;90.60
1700;DHT22;847;48.058;7.810;2023-04-15T06:35:16;8.80;91.10
1700;DHT22;847;48.058;7.810;2023-04-15T06:37:42;8.80;91.60
1700;DHT22;847;48.058;7.810;2023-04-15T06:40:10;8.80;90.90
1700;DHT22;847;48.058;7.810;2023-04-15T06:42:36;8.90;90.70
1700;DHT22;847;48.058;7.810;2023-04-15T06:45:04;8.90;89.60
1700;DHT22;847;48.058;7.810;2023-04-15T06:47:31;8.90;89.60
1700;DHT22;847;48.058;7.810;2023-04-15T06:49:57;9.00;90.10
1700;DHT22;847;48.058;7.810;2023-04-15T06:52:25;9.00;90.20
1700;DHT22;847;48.058;7.810;2023-04-15T06:54:52;9.10;90.00
1700;DHT22;847;48.058;7.810;2023-04-15T06:57:19;9.10;89.30
1700;DHT22;847;48.058;7.810;2023-04-15T06:59:46;9.20;89.20
1700;DHT22;847;48.058;7.810;2023-04-15T07:02:13;9.20;89.60
1700;DHT22;847;48.058;7.810;2023-04-15T07:04:40;9.30;90.00
1700;DHT22;847;48.058;7.810;2023-04-15T07:07:06;9.30;90.50
1700;DHT22;847;48.058;7.810;2023-04-15T07:09:35;9.30;89.90
1700;DHT22;847;48.058;7.810;2023-04-15T07:12:02;9.40;89.80
1700;DHT22;847;48.058;7.810;2023-04-15T07:14:28;9.40;89.90
1700;DHT22;847;48.058;7.810;2023-04-15T07:16:55;9.40;89.50
1700;DHT22;847;48.058;7.810;2023-04-15T07:19:22;9.50;89.60
1700;DHT22;847;48.058;7.810;2023-04-15T07:21:49;9.50;89.60
1700;DHT22;847;48.058;7.810;2023-04-15T07:24:15;9.50;89.20
1700;DHT22;847;48.058;7.810;2023-04-15T07:26:45;9.50;89.50
1700;DHT22;847;48.058;7.810;2023-04-15T07:29:12;9.60;89.10
1700;DHT22;847;48.058;7.810;2023-04-15T07:31:39;9.60;89.40
1700;DHT22;847;48.058;7.810;2023-04-15T07:34:06;9.60;89.60
1700;DHT22;847;48.058;7.810;2023-04-15T07:36:33;9.60;90.00
1700;DHT22;847;48.058;7.810;2023-04-15T07:39:00;9.60;89.60
1700;DHT22;847;48.058;7.810;2023-04-15T07:41:28;9.60;89.70
1700;DHT22;847;48.058;7.810;2023-04-15T07:43:56;9.60;90.10
1700;DHT22;847;48.058;7.810;2023-04-15T07:46:23;9.70;90.00
1700;DHT22;847;48.058;7.810;2023-04-15T07:48:51;9.70;90.30
1700;DHT22;847;48.058;7.810;2023-04-15T07:51:18;9.80;91.10
1700;DHT22;847;48.058;7.810;2023-04-15T07:53:45;9.80;91.20
1700;DHT22;847;48.058;7.810;2023-04-15T07:56:12;9.90;90.00
1700;DHT22;847;48.058;7.810;2023-04-15T07:58:39;9.90;91.00
1700;DHT22;847;48.058;7.810;2023-04-15T08:01:08;9.90;91.00
1700;DHT22;847;48.058;7.810;2023-04-15T08:03:35;10.00;90.90
1700;DHT22;847;48.058;7.810;2023-04-15T08:06:02;10.00;90.50
1700;DHT22;847;48.058;7.810;2023-04-15T08:08:28;10.00;91.30
1700;DHT22;847;48.058;7.810;2023-04-15T08:10:55;10.00;91.80
1700;DHT22;847;48.058;7.810;2023-04-15T08:13:23;10.00;90.90
1700;DHT22;847;48.058;7.810;2023-04-15T08:15:55;10.00;90.50
1700;DHT22;847;48.058;7.810;2023-04-15T08:18:39;10.00;91.70
1700;DHT22;847;48.058;7.810;2023-04-15T08:21:06;10.00;92.50
1700;DHT22;847;48.058;7.810;2023-04-15T08:23:33;10.10;92.00
1700;DHT22;847;48.058;7.810;2023-04-15T08:26:00;10.10;92.00
1700;DHT22;847;48.058;7.810;2023-04-15T08:28:27;10.10;91.40
1700;DHT22;847;48.058;7.810;2023-04-15T08:30:54;10.20;91.50
1700;DHT22;847;48.058;7.810;2023-04-15T08:33:21;10.20;92.20
1700;DHT22;847;48.058;7.810;2023-04-15T08:35:49;10.20;90.70
1700;DHT22;847;48.058;7.810;2023-04-15T08:38:16;10.30;91.30
1700;DHT22;847;48.058;7.810;2023-04-15T08:40:44;10.30;91.50
1700;DHT22;847;48.058;7.810;2023-04-15T08:43:14;10.40;91.80
1700;DHT22;847;48.058;7.810;2023-04-15T08:45:45;10.50;91.60
1700;DHT22;847;48.058;7.810;2023-04-15T08:48:14;10.50;90.60
1700;DHT22;847;48.058;7.810;2023-04-15T08:50:42;10.60;91.00
1700;DHT22;847;48.058;7.810;2023-04-15T08:53:10;10.50;90.70
1700;DHT22;847;48.058;7.810;2023-04-15T08:55:41;10.50;91.70
1700;DHT22;847;48.058;7.810;2023-04-15T08:58:09;10.60;91.20
1700;DHT22;847;48.058;7.810;2023-04-15T09:00:39;10.60;90.60
1700;DHT22;847;48.058;7.810;2023-04-15T09:03:07;10.70;90.70
1700;DHT22;847;48.058;7.810;2023-04-15T09:05:35;10.70;90.30
1700;DHT22;847;48.058;7.810;2023-04-15T09:08:02;10.80;90.90
1700;DHT22;847;48.058;7.810;2023-04-15T09:10:32;10.90;91.20
1700;DHT22;847;48.058;7.810;2023-04-15T09:13:00;11.10;91.90
1700;DHT22;847;48.058;7.810;2023-04-15T09:15:27;11.20;90.90
1700;DHT22;847;48.058;7.810;2023-04-15T09:17:56;11.20;89.90
1700;DHT22;847;48.058;7.810;2023-04-15T09:20:25;11.20;88.20
1700;DHT22;847;48.058;7.810;2023-04-15T09:22:52;11.20;88.60
1700;DHT22;847;48.058;7.810;2023-04-15T09:25:28;11.30;89.60
1700;DHT22;847;48.058;7.810;2023-04-15T09:27:58;11.40;88.70
1700;DHT22;847;48.058;7.810;2023-04-15T09:30:26;11.40;87.80
1700;DHT22;847;48.058;7.810;2023-04-15T09:32:54;11.40;87.90
1700;DHT22;847;48.058;7.810;2023-04-15T09:35:22;11.40;87.20
1700;DHT22;847;48.058;7.810;2023-04-15T09:37:50;11.50;89.00
1700;DHT22;847;48.058;7.810;2023-04-15T09:40:30;11.60;88.10
1700;DHT22;847;48.058;7.810;2023-04-15T09:42:59;11.70;88.50
1700;DHT22;847;48.058;7.810;2023-04-15T09:45:27;11.70;87.70
1700;DHT22;847;48.058;7.810;2023-04-15T09:47:54;11.80;86.90
1700;DHT22;847;48.058;7.810;2023-04-15T09:50:21;11.80;87.30
1700;DHT22;847;48.058;7.810;2023-04-15T09:52:52;11.80;86.50
1700;DHT22;847;48.058;7.810;2023-04-15T09:55:19;12.00;86.40
1700;DHT22;847;48.058;7.810;2023-04-15T09:57:46;12.00;86.40
1700;DHT22;847;48.058;7.810;2023-04-15T10:00:14;12.00;86.90
1700;DHT22;847;48.058;7.810;2023-04-15T10:02:42;12.10;87.00
1700;DHT22;847;48.058;7.810;2023-04-15T10:05:10;12.20;87.40
1700;DHT22;847;48.058;7.810;2023-04-15T10:07:39;12.30;87.10
1700;DHT22;847;48.058;7.810;2023-04-15T10:10:07;12.10;86.30
1700;DHT22;847;48.058;7.810;2023-04-15T10:12:36;12.10;85.90
1700;DHT22;847;48.058;7.810;2023-04-15T10:15:05;12.20;86.30
1700;DHT22;847;48.058;7.810;2023-04-15T10:17:33;12.30;86.20
1700;DHT22;847;48.058;7.810;2023-04-15T10:20:02;12.30;85.10
1700;DHT22;847;48.058;7.810;2023-04-15T10:22:30;12.40;84.60
1700;DHT22;847;48.058;7.810;2023-04-15T10:24:58;12.50;84.60
1700;DHT22;847;48.058;7.810;2023-04-15T10:27:25;12.60;85.80
1700;DHT22;847;48.058;7.810;2023-04-15T10:29:53;12.70;83.80
1700;DHT22;847;48.058;7.810;2023-04-15T10:32:20;12.80;85.50
1700;DHT22;847;48.058;7.810;2023-04-15T10:34:49;12.90;83.10
1700;DHT22;847;48.058;7.810;2023-04-15T10:37:20;12.90;82.40
1700;DHT22;847;48.058;7.810;2023-04-15T10:39:46;13.00;83.70
1700;DHT22;847;48.058;7.810;2023-04-15T10:42:14;13.10;83.70
1700;DHT22;847;48.058;7.810;2023-04-15T10:44:44;13.00;82.90
1700;DHT22;847;48.058;7.810;2023-04-15T10:47:14;13.00;83.30
1700;DHT22;847;48.058;7.810;2023-04-15T10:49:45;13.20;83.50
1700;DHT22;847;48.058;7.810;2023-04-15T10:52:15;13.20;81.90
1700;DHT22;847;48.058;7.810;2023-04-15T10:54:42;13.20;82.50
1700;DHT22;847;48.058;7.810;2023-04-15T10:57:15;13.40;80.60
1700;DHT22;847;48.058;7.810;2023-04-15T11:00:08;13.70;81.10
1700;DHT22;847;48.058;7.810;2023-04-15T11:02:44;13.80;78.10
1700;DHT22;847;48.058;7.810;2023-04-15T11:05:12;13.80;78.20
1700;DHT22;847;48.058;7.810;2023-04-15T11:07:47;13.70;78.10
1700;DHT22;847;48.058;7.810;2023-04-15T11:13:24;13.70;79.10
1700;DHT22;847;48.058;7.810;2023-04-15T11:15:57;13.70;78.00
1700;DHT22;847;48.058;7.810;2023-04-15T11:18:30;13.60;77.10
1700;DHT22;847;48.058;7.810;2023-04-15T11:20:59;13.50;78.00
1700;DHT22;847;48.058;7.810;2023-04-15T11:23:32;13.40;78.90
1700;DHT22;847;48.058;7.810;2023-04-15T11:26:01;13.40;79.70
1700;DHT22;847;48.058;7.810;2023-04-15T11:28:30;13.40;79.70
1700;DHT22;847;48.058;7.810;2023-04-15T11:31:04;13.40;79.80
1700;DHT22;847;48.058;7.810;2023-04-15T11:33:31;13.50;79.40
1700;DHT22;847;48.058;7.810;2023-04-15T11:35:58;13.40;79.00
1700;DHT22;847;48.058;7.810;2023-04-15T11:38:25;13.40;80.20
1700;DHT22;847;48.058;7.810;2023-04-15T11:40:53;13.50;80.30
1700;DHT22;847;48.058;7.810;2023-04-15T11:43:22;13.50;80.50
1700;DHT22;847;48.058;7.810;2023-04-15T11:45:51;13.50;80.70
1700;DHT22;847;48.058;7.810;2023-04-15T11:48:19;13.50;78.60
1700;DHT22;847;48.058;7.810;2023-04-15T11:50:52;13.50;79.20
1700;DHT22;847;48.058;7.810;2023-04-15T11:53:19;13.50;79.40
1700;DHT22;847;48.058;7.810;2023-04-15T11:55:48;13.50;78.50
1700;DHT22;847;48.058;7.810;2023-04-15T11:58:19;13.50;78.20
1700;DHT22;847;48.058;7.810;2023-04-15T12:00:48;13.60;80.70
1700;DHT22;847;48.058;7.810;2023-04-15T12:03:21;13.70;79.80
1700;DHT22;847;48.058;7.810;2023-04-15T12:06:14;13.70;79.10
1700;DHT22;847;48.058;7.810;2023-04-15T12:09:14;13.70;78.30
1700;DHT22;847;48.058;7.810;2023-04-15T12:11:43;13.80;77.60
1700;DHT22;847;48.058;7.810;2023-04-15T12:14:20;13.80;77.70
1700;DHT22;847;48.058;7.810;2023-04-15T12:16:49;13.80;78.40
1700;DHT22;847;48.058;7.810;2023-04-15T12:19:24;13.90;78.60
1700;DHT22;847;48.058;7.810;2023-04-15T12:21:54;14.00;77.10
1700;DHT22;847;48.058;7.810;2023-04-15T12:24:23;14.10;78.30
1700;DHT22;847;48.058;7.810;2023-04-15T12:26:51;14.10;75.00
1700;DHT22;847;48.058;7.810;2023-04-15T12:29:23;14.20;77.30
1700;DHT22;847;48.058;7.810;2023-04-15T12:31:52;14.30;73.60
1700;DHT22;847;48.058;7.810;2023-04-15T12:34:26;14.40;74.10
1700;DHT22;847;48.058;7.810;2023-04-15T12:36:54;14.50;74.70
1700;DHT22;847;48.058;7.810;2023-04-15T12:39:21;14.60;74.30
1700;DHT22;847;48.058;7.810;2023-04-15T12:41:48;14.60;72.40
1700;DHT22;847;48.058;7.810;2023-04-15T12:44:15;14.80;73.60
1700;DHT22;847;48.058;7.810;2023-04-15T12:46:44;14.80;73.20
1700;DHT22;847;48.058;7.810;2023-04-15T12:49:11;14.80;71.50
1700;DHT22;847;48.058;7.810;2023-04-15T12:51:39;14.80;72.30
1700;DHT22;847;48.058;7.810;2023-04-15T12:54:05;14.80;73.40
1700;DHT22;847;48.058;7.810;2023-04-15T12:56:32;14.80;73.00
1700;DHT22;847;48.058;7.810;2023-04-15T12:58:59;14.80;73.70
1700;DHT22;847;48.058;7.810;2023-04-15T13:01:26;14.70;72.90
1700;DHT22;847;48.058;7.810;2023-04-15T13:03:54;14.70;75.40
1700;DHT22;847;48.058;7.810;2023-04-15T13:06:21;14.80;75.10
1700;DHT22;847;48.058;7.810;2023-04-15T13:08:49;14.80;74.30
1700;DHT22;847;48.058;7.810;2023-04-15T13:11:16;14.80;72.30
1700;DHT22;847;48.058;7.810;2023-04-15T13:13:42;14.80;72.90
1700;DHT22;847;48.058;7.810;2023-04-15T13:16:09;14.80;72.40
1700;DHT22;847;48.058;7.810;2023-04-15T13:18:36;14.80;72.00
1700;DHT22;847;48.058;7.810;2023-04-15T13:21:04;15.00;70.70
1700;DHT22;847;48.058;7.810;2023-04-15T13:23:32;15.00;70.50
1700;DHT22;847;48.058;7.810;2023-04-15T13:25:58;15.00;68.80
1700;DHT22;847;48.058;7.810;2023-04-15T13:28:25;15.00;69.50
1700;DHT22;847;48.058;7.810;2023-04-15T13:30:52;15.00;69.10
1700;DHT22;847;48.058;7.810;2023-04-15T13:33:18;15.20;67.80
1700;DHT22;847;48.058;7.810;2023-04-15T13:35:45;15.40;69.40
1700;DHT22;847;48.058;7.810;2023-04-15T13:38:13;15.50;66.80
1700;DHT22;847;48.058;7.810;2023-04-15T13:40:40;15.60;67.10
1700;DHT22;847;48.058;7.810;2023-04-15T13:43:07;15.80;64.60
1700;DHT22;847;48.058;7.810;2023-04-15T13:45:33;15.80;64.60
1700;DHT22;847;48.058;7.810;2023-04-15T13:48:00;15.80;63.50
1700;DHT22;847;48.058;7.810;2023-04-15T13:50:27;15.80;63.80
1700;DHT22;847;48.058;7.810;2023-04-15T13:52:54;15.90;64.30
1700;DHT22;847;48.058;7.810;2023-04-15T13:55:22;16.00;65.40
1700;DHT22;847;48.058;7.810;2023-04-15T13:57:49;16.30;64.70
1700;DHT22;847;48.058;7.810;2023-04-15T14:00:19;16.40;65.10
1700;DHT22;847;48.058;7.810;2023-04-15T14:02:45;16.50;61.90
1700;DHT22;847;48.058;7.810;2023-04-15T14:05:12;16.60;62.10
1700;DHT22;847;48.058;7.810;2023-04-15T14:07:39;16.50;61.10
1700;DHT22;847;48.058;7.810;2023-04-15T14:10:07;16.50;62.00
1700;DHT22;847;48.058;7.810;2023-04-15T14:12:35;16.40;59.30
1700;DHT22;847;48.058;7.810;2023-04-15T14:15:02;16.50;59.70
1700;DHT22;847;48.058;7.810;2023-04-15T14:17:29;16.40;58.90
1700;DHT22;847;48.058;7.810;2023-04-15T14:19:56;16.20;56.70
1700;DHT22;847;48.058;7.810;2023-04-15T14:22:22;16.00;57.50
1700;DHT22;847;48.058;7.810;2023-04-15T14:24:49;15.80;58.20
1700;DHT22;847;48.058;7.810;2023-04-15T14:27:18;15.80;58.00
1700;DHT22;847;48.058;7.810;2023-04-15T14:29:46;15.70;56.40
1700;DHT22;847;48.058;7.810;2023-04-15T14:32:13;15.80;56.20
1700;DHT22;847;48.058;7.810;2023-04-15T14:34:40;15.90;56.30
1700;DHT22;847;48.058;7.810;2023-04-15T14:37:06;16.10;54.30
1700;DHT22;847;48.058;7.810;2023-04-15T14:39:33;16.10;53.80
1700;DHT22;847;48.058;7.810;2023-04-15T14:42:00;16.10;54.80
1700;DHT22;847;48.058;7.810;2023-04-15T14:44:27;16.20;53.10
1700;DHT22;847;48.058;7.810;2023-04-15T14:46:55;16.40;55.50
1700;DHT22;847;48.058;7.810;2023-04-15T14:49:22;16.40;52.30
1700;DHT22;847;48.058;7.810;2023-04-15T14:51:49;16.40;53.00
1700;DHT22;847;48.058;7.810;2023-04-15T14:54:16;16.50;55.30
1700;DHT22;847;48.058;7.810;2023-04-15T14:56:43;16.60;55.20
1700;DHT22;847;48.058;7.810;2023-04-15T14:59:10;16.60;54.30
1700;DHT22;847;48.058;7.810;2023-04-15T15:01:37;16.70;55.30
1700;DHT22;847;48.058;7.810;2023-04-15T15:04:08;16.70;53.90
1700;DHT22;847;48.058;7.810;2023-04-15T15:06:35;16.70;54.30
1700;DHT22;847;48.058;7.810;2023-04-15T15:09:02;16.70;55.40
1700;DHT22;847;48.058;7.810;2023-04-15T15:11:29;16.70;53.90
1700;DHT22;847;48.058;7.810;2023-04-15T15:13:56;16.60;55.10
1700;DHT22;847;48.058;7.810;2023-04-15T15:16:24;16.60;54.00
1700;DHT22;847;48.058;7.810;2023-04-15T15:18:54;16.50;54.10
1700;DHT22;847;48.058;7.810;2023-04-15T15:21:22;16.50;57.50
1700;DHT22;847;48.058;7.810;2023-04-15T15:23:48;16.70;57.40
1700;DHT22;847;48.058;7.810;2023-04-15T15:26:15;16.70;60.10
1700;DHT22;847;48.058;7.810;2023-04-15T15:28:43;16.60;54.70
1700;DHT22;847;48.058;7.810;2023-04-15T15:31:10;16.60;56.40
1700;DHT22;847;48.058;7.810;2023-04-15T15:33:37;16.60;53.20
1700;DHT22;847;48.058;7.810;2023-04-15T15:36:04;16.60;53.40
1700;DHT22;847;48.058;7.810;2023-04-15T15:38:32;16.70;56.00
1700;DHT22;847;48.058;7.810;2023-04-15T15:40:59;16.70;56.80
1700;DHT22;847;48.058;7.810;2023-04-15T15:43:25;16.60;56.30
1700;DHT22;847;48.058;7.810;2023-04-15T15:45:52;16.60;55.30
1700;DHT22;847;48.058;7.810;2023-04-15T15:48:20;16.60;55.90
1700;DHT22;847;48.058;7.810;2023-04-15T15:50:46;16.60;56.40
1700;DHT22;847;48.058;7.810;2023-04-15T15:53:13;16.60;57.00
1700;DHT22;847;48.058;7.810;2023-04-15T15:55:46;16.60;56.10
1700;DHT22;847;48.058;7.810;2023-04-15T15:58:13;16.50;56.40
1700;DHT22;847;48.058;7.810;2023-04-15T16:00:40;16.30;58.30
1700;DHT22;847;48.058;7.810;2023-04-15T16:03:07;16.30;59.70
1700;DHT22;847;48.058;7.810;2023-04-15T16:05:34;16.30;60.80
1700;DHT22;847;48.058;7.810;2023-04-15T16:08:01;16.20;60.60
1700;DHT22;847;48.058;7.810;2023-04-15T16:10:27;16.20;61.00
1700;DHT22;847;48.058;7.810;2023-04-15T16:12:56;16.20;59.40
1700;DHT22;847;48.058;7.810;2023-04-15T16:15:24;16.10;60.10
1700;DHT22;847;48.058;7.810;2023-04-15T16:17:51;16.00;62.70
1700;DHT22;847;48.058;7.810;2023-04-15T16:20:18;16.10;63.80
1700;DHT22;847;48.058;7.810;2023-04-15T16:22:44;16.10;67.20
1700;DHT22;847;48.058;7.810;2023-04-15T16:25:11;16.10;68.60
1700;DHT22;847;48.058;7.810;2023-04-15T16:27:40;15.90;71.20
1700;DHT22;847;48.058;7.810;2023-04-15T16:30:10;15.90;72.50
1700;DHT22;847;48.058;7.810;2023-04-15T16:32:37;15.80;75.20
1700;DHT22;847;48.058;7.810;2023-04-15T16:35:04;15.50;74.20